Time;durP1;ratioP1;P1;durP2;ratioP2;P2;SDS_P1;SDS_P2;PMS_P1;PMS_P2;Temp;Humidity;BMP_temperature;BMP_pressure;BME280_temperature;BME280_humidity;BME280_pressure;Samples;Min_cycle;Max_cycle;Signal;HPM_P1;HPM_P2
2021/05/08 15:51:42;;;;;;;0.67;0.50;;;;;;;17.34;35.79;95574.13;4369300;32;20264;-74
2021/05/08 15:54:07;;;;;;;0.65;0.40;;;;;;;17.24;36.06;95573.31;4386185;32;20253;-74
2021/05/08 15:56:35;;;;;;;0.80;0.40;;;;;;;17.24;36.16;95575.94;4387267;32;20648;-74
2021/05/08 15:59:00;;;;;;;0.75;0.50;;;;;;;17.15;36.36;95571.56;4388466;32;20260;-74
2021/05/08 16:01:26;;;;;;;1.40;0.60;;;;;;;17.18;37.70;95581.75;4388367;32;20226;-74
2021/05/08 16:03:52;;;;;;;0.98;0.50;;;;;;;17.25;37.60;95569.75;4388187;32;20237;-74
2021/05/08 16:06:17;;;;;;;0.47;0.35;;;;;;;17.23;38.44;95570.84;4387818;32;20265;-73
2021/05/08 16:08:43;;;;;;;0.85;0.60;;;;;;;17.27;38.11;95559.13;4387740;32;20217;-74
2021/05/08 16:11:09;;;;;;;0.70;0.37;;;;;;;17.36;37.74;95574.00;4386084;32;20226;-74
2021/05/08 16:13:34;;;;;;;0.70;0.50;;;;;;;17.41;39.21;95556.87;4386202;32;20639;-73
2021/05/08 16:16:00;;;;;;;0.77;0.40;;;;;;;17.38;37.95;95558.97;4386743;32;20218;-73
2021/05/08 16:18:25;;;;;;;1.00;0.50;;;;;;;17.27;38.30;95551.28;4379893;32;20670;-73
2021/05/08 16:20:51;;;;;;;1.70;0.70;;;;;;;17.23;38.77;95555.97;4384294;32;20634;-73
2021/05/08 16:23:17;;;;;;;1.00;0.50;;;;;;;17.20;39.51;95555.44;4382252;32;20223;-73
2021/05/08 16:25:42;;;;;;;0.43;0.30;;;;;;;17.09;39.15;95561.66;4383295;32;20726;-72
2021/05/08 16:28:08;;;;;;;0.60;0.37;;;;;;;17.06;39.35;95554.09;4374037;32;20583;-73
2021/05/08 16:30:34;;;;;;;1.30;0.57;;;;;;;16.98;39.68;95551.34;4379324;32;20529;-73
2021/05/08 16:32:59;;;;;;;3.05;0.62;;;;;;;16.99;40.28;95542.56;4382531;32;20662;-74
2021/05/08 16:35:25;;;;;;;1.00;0.60;;;;;;;17.11;40.29;95547.47;4382189;32;20311;-73
2021/05/08 16:37:50;;;;;;;5.28;4.07;;;;;;;17.25;40.13;95545.38;4380754;32;20218;-73
2021/05/08 16:40:16;;;;;;;1.00;0.57;;;;;;;17.38;40.39;95533.59;4381874;32;20260;-73
2021/05/08 16:42:42;;;;;;;1.20;0.57;;;;;;;17.51;39.34;95541.16;4382217;32;20251;-73
2021/05/08 16:45:07;;;;;;;0.50;0.40;;;;;;;17.65;39.51;95535.44;4378816;32;20640;-73
2021/05/08 16:47:33;;;;;;;1.70;1.13;;;;;;;17.58;39.08;95528.31;4386691;32;20634;-73
2021/05/08 16:49:59;;;;;;;1.33;0.70;;;;;;;17.49;40.67;95529.97;4387918;32;20221;-73
2021/05/08 16:52:25;;;;;;;0.80;0.60;;;;;;;17.53;40.73;95530.50;4388056;32;20237;-73
2021/05/08 16:54:50;;;;;;;1.33;0.67;;;;;;;17.54;40.23;95519.91;4388146;32;20279;-73
2021/05/08 16:57:16;;;;;;;1.40;0.70;;;;;;;17.60;40.39;95516.69;4388142;32;20277;-73
2021/05/08 16:59:41;;;;;;;1.20;0.50;;;;;;;17.67;40.75;95524.81;4388081;32;20240;-73
2021/05/08 17:02:07;;;;;;;2.70;0.50;;;;;;;17.60;40.48;95521.09;4388230;32;20221;-73
2021/05/08 17:04:33;;;;;;;1.35;0.70;;;;;;;17.58;40.82;95520.44;4387728;32;20230;-73
2021/05/08 17:06:58;;;;;;;0.73;0.43;;;;;;;17.52;40.81;95518.41;4376094;32;20277;-73
2021/05/08 17:09:24;;;;;;;2.10;0.88;;;;;;;17.57;41.31;95522.22;4374842;32;20654;-73
2021/05/08 17:11:50;;;;;;;0.73;0.65;;;;;;;17.51;41.40;95522.00;4377599;32;20650;-73
2021/05/08 17:14:15;;;;;;;3.17;1.10;;;;;;;17.53;41.68;95518.25;4373619;32;20290;-73
2021/05/08 17:16:41;;;;;;;3.27;0.70;;;;;;;17.41;42.77;95527.25;4379016;32;20271;-73
2021/05/08 17:19:06;;;;;;;0.87;0.57;;;;;;;17.34;41.98;95526.19;4381728;32;20275;-73
2021/05/08 17:21:32;;;;;;;1.43;0.50;;;;;;;17.36;42.48;95524.25;4372603;32;20250;-73
2021/05/08 17:23:58;;;;;;;0.70;0.50;;;;;;;17.38;41.94;95512.66;4378698;32;20250;-73
2021/05/08 17:26:23;;;;;;;1.75;0.60;;;;;;;17.39;42.88;95518.72;4387446;32;20225;-73
2021/05/08 17:28:50;;;;;;;1.42;0.52;;;;;;;17.39;42.91;95522.19;4387852;32;20282;-73
2021/05/08 17:31:15;;;;;;;1.40;0.55;;;;;;;17.36;43.41;95525.09;4383765;32;20226;-73
2021/05/08 17:33:41;;;;;;;0.80;0.60;;;;;;;17.34;43.31;95520.94;4383191;32;20248;-73
2021/05/08 17:36:07;;;;;;;1.17;0.60;;;;;;;17.40;43.17;95515.16;4387109;32;20527;-73
2021/05/08 17:38:32;;;;;;;1.37;0.70;;;;;;;17.37;43.03;95518.87;4387969;32;20326;-75
2021/05/08 17:40:58;;;;;;;2.70;0.73;;;;;;;17.44;43.07;95518.31;4387412;32;20267;-74
2021/05/08 17:43:23;;;;;;;0.90;0.67;;;;;;;17.41;43.46;95516.78;4386738;32;20679;-74
2021/05/08 17:45:49;;;;;;;1.83;0.70;;;;;;;17.47;43.42;95518.84;4382561;32;20590;-75
2021/05/08 17:48:15;;;;;;;0.77;0.50;;;;;;;17.51;43.37;95514.97;4380215;32;20523;-74
2021/05/08 17:50:40;;;;;;;1.20;0.50;;;;;;;17.48;43.49;95515.25;4372201;32;20624;-74
2021/05/08 17:53:06;;;;;;;1.00;0.60;;;;;;;17.48;43.65;95517.03;4378861;32;20628;-75
2021/05/08 17:55:32;;;;;;;1.13;0.70;;;;;;;17.43;43.79;95517.47;4387477;32;20598;-74
2021/05/08 17:57:57;;;;;;;0.90;0.63;;;;;;;17.40;44.11;95515.97;4387151;32;20687;-74
2021/05/08 18:00:23;;;;;;;2.33;0.80;;;;;;;17.26;43.98;95510.38;4385618;32;20728;-75
2021/05/08 18:02:48;;;;;;;2.53;1.10;;;;;;;17.14;44.30;95518.41;4372584;32;20277;-74
2021/05/08 18:05:14;;;;;;;1.50;0.90;;;;;;;16.99;45.22;95513.78;4386773;32;20220;-74
2021/05/08 18:07:40;;;;;;;4.67;1.20;;;;;;;16.92;45.03;95516.12;4375068;32;20715;-74
2021/05/08 18:10:05;;;;;;;0.98;0.80;;;;;;;16.77;45.39;95509.69;4379440;32;20560;-74
2021/05/08 18:12:31;;;;;;;1.70;1.00;;;;;;;16.64;45.97;95505.53;4382746;32;20227;-74
2021/05/08 18:14:57;;;;;;;1.80;0.93;;;;;;;16.57;46.38;95501.81;4378734;32;20246;-74
2021/05/08 18:17:22;;;;;;;2.30;1.20;;;;;;;16.43;46.51;95504.87;4387062;32;20245;-74
2021/05/08 18:19:48;;;;;;;1.27;0.90;;;;;;;16.34;47.13;95514.38;4390406;32;20271;-75
2021/05/08 18:22:13;;;;;;;1.37;0.83;;;;;;;16.30;46.83;95509.56;4379598;32;20218;-74
2021/05/08 18:24:39;;;;;;;1.40;0.90;;;;;;;16.24;47.16;95507.47;4375717;32;20285;-75
2021/05/08 18:27:05;;;;;;;1.00;0.80;;;;;;;16.13;47.45;95504.06;4377178;32;20227;-74
2021/05/08 18:29:30;;;;;;;2.47;1.03;;;;;;;16.03;48.05;95503.22;4380234;32;20211;-74
2021/05/08 18:31:56;;;;;;;2.03;1.53;;;;;;;15.94;48.27;95507.50;4375097;32;20271;-74
2021/05/08 18:34:22;;;;;;;1.80;1.13;;;;;;;15.89;48.43;95512.28;4379218;32;20225;-74
2021/05/08 18:36:48;;;;;;;2.00;1.40;;;;;;;15.85;48.46;95510.06;4378362;32;20241;-74
2021/05/08 18:39:13;;;;;;;1.73;1.15;;;;;;;15.80;48.84;95518.31;4381966;32;20553;-74
2021/05/08 18:41:39;;;;;;;8.35;1.50;;;;;;;15.72;48.97;95524.22;4382958;32;20226;-73
2021/05/08 18:44:05;;;;;;;2.80;1.13;;;;;;;15.64;49.41;95521.38;4390305;32;20239;-74
2021/05/08 18:46:30;;;;;;;1.87;1.17;;;;;;;15.56;49.66;95517.78;4378253;32;20219;-74
2021/05/08 18:48:56;;;;;;;1.87;1.23;;;;;;;15.45;50.23;95513.50;4388202;32;20589;-75
2021/05/08 18:51:22;;;;;;;1.97;1.27;;;;;;;15.40;50.41;95526.13;4389162;32;20225;-74
2021/05/08 18:53:47;;;;;;;2.37;1.50;;;;;;;15.35;50.34;95513.50;4386020;32;20261;-74
2021/05/08 18:56:13;;;;;;;2.53;1.77;;;;;;;15.30;50.75;95514.81;4386525;32;20220;-73
2021/05/08 18:58:39;;;;;;;2.30;1.77;;;;;;;15.25;50.82;95521.25;4386446;32;20703;-73
2021/05/08 19:01:04;;;;;;;3.80;1.90;;;;;;;15.17;51.28;95523.72;4388228;32;20238;-74
2021/05/08 19:03:30;;;;;;;4.00;2.40;;;;;;;15.07;53.31;95524.59;4387728;32;20244;-72
2021/05/08 19:05:56;;;;;;;3.77;2.53;;;;;;;14.93;53.86;95526.59;4388145;32;20260;-73
2021/05/08 19:08:21;;;;;;;3.23;2.70;;;;;;;14.86;54.07;95530.66;4387621;32;20699;-73
2021/05/08 19:10:47;;;;;;;8.10;3.53;;;;;;;14.80;54.49;95519.94;4387799;32;20702;-73
2021/05/08 19:13:12;;;;;;;4.12;2.75;;;;;;;14.71;54.76;95519.72;4386610;32;20577;-73
2021/05/08 19:15:38;;;;;;;4.12;2.65;;;;;;;14.64;55.15;95517.75;4387440;32;20617;-73
2021/05/08 19:18:04;;;;;;;3.17;2.50;;;;;;;14.56;55.40;95514.97;4388130;32;20217;-73
2021/05/08 19:20:29;;;;;;;2.87;2.30;;;;;;;14.44;56.25;95512.37;4385032;32;20218;-73
2021/05/08 19:22:55;;;;;;;3.15;2.10;;;;;;;14.38;56.85;95509.44;4387634;32;20252;-73
2021/05/08 19:25:21;;;;;;;3.30;1.85;;;;;;;14.31;57.60;95510.91;4388052;32;20244;-73
2021/05/08 19:27:46;;;;;;;3.35;2.37;;;;;;;14.17;57.90;95504.25;4386027;32;20315;-73
2021/05/08 19:30:12;;;;;;;4.05;2.05;;;;;;;14.14;57.59;95507.09;4395148;27;20348;-73
2021/05/08 19:32:37;;;;;;;4.78;3.12;;;;;;;13.97;58.44;95514.47;4395391;32;20236;-74
2021/05/08 19:35:03;;;;;;;2.80;2.05;;;;;;;13.81;58.94;95508.84;4395855;32;20562;-74
2021/05/08 19:37:29;;;;;;;2.37;1.60;;;;;;;13.69;59.52;95508.03;4402354;32;20658;-74
